Terminal Aerodrome Forecast
Issued by NWS

Home | Current Version | Previous Version | Text Only | Print | Product List | Glossary On
Versions: 1 2 3 4 5 6 7 8 9 10 11 12
197
FTUS46 KPDT 301128
TAFYKM
TAF
KYKM 301128Z 3012/0112 32005KT P6SM FEW100 SCT120
     FM301400 28005KT P6SM FEW120 FEW250
     FM302100 22010KT P6SM FEW120 SCT250
     FM010300 28006KT P6SM BKN120
     FM010900 28005KT P6SM FEW070 FEW120=

USA.gov is the U.S. government's official web portal to all federal, state and local government web resources and services.